Terminal Aerodrome Forecast
Issued by NWS Caribou, ME

Home | Current Version | Previous Version | Text Only | Print | Product List | Glossary On
Versions: 1 2 3 4 5 6 7 8 9 10 11 12 13 14 15 16 17 18
803
FTUS41 KCAR 241138
TAFBGR
TAF
KBGR 241138Z 2412/2512 08006KT P6SM OVC015
      TEMPO 2412/2414 OVC008
     FM241800 13006KT P6SM BKN025
     FM242100 15006KT P6SM VCSH OVC025
     FM250000 VRB03KT P6SM VCSH OVC015
     FM250300 VRB03KT P6SM VCSH OVC008
     FM250600 VRB03KT 2SM BR OVC005=

USA.gov is the U.S. government's official web portal to all federal, state and local government web resources and services.